Terminal Aerodrome Forecast
Issued by NWS

Home | Current Version | Previous Version | Text Only | Print | Product List | Glossary On
Versions: 1 2 3 4 5 6 7 8 9 10 11 12 13 14 15
000
FTAK31 PAJN 031300 AAA
TAFAWG
TAF AMD
PAWG 031309Z 0313/0412 15005KT P6SM VCFG SCT002 BKN040
      TEMPO 0313/0315 1/2SM FG BKN002 BKN040
     FM031600 14007KT P6SM BKN120
     FM031900 32005KT P6SM BKN120
     FM040300 14006KT P6SM BKN080
      AMD LTD TO CLD VIS AND WIND 0313/0315=

USA.gov is the U.S. government's official web portal to all federal, state and local government web resources and services.